Time;durP1;ratioP1;P1;durP2;ratioP2;P2;SDS_P1;SDS_P2;PMS_P1;PMS_P2;Temp;Humidity;BMP_temperature;BMP_pressure;BME280_temperature;BME280_humidity;BME280_pressure;Samples;Min_cycle;Max_cycle;Signal;HPM_P1;HPM_P2
2021/08/22 00:00:18;;;;;;;0.40;0.40;;;19.50;99.90;;;;;;5063790;28;20209;-81
2021/08/22 00:02:44;;;;;;;0.90;0.90;;;19.70;99.90;;;;;;5058084;28;20189;-83
2021/08/22 00:05:09;;;;;;;1.43;0.73;;;19.60;99.90;;;;;;5061799;28;20189;-83
2021/08/22 00:07:35;;;;;;;0.67;0.67;;;19.50;99.90;;;;;;5070018;28;20223;-83
2021/08/22 00:10:01;;;;;;;0.80;0.80;;;19.70;99.90;;;;;;5065003;28;20201;-82
2021/08/22 00:12:26;;;;;;;0.90;0.43;;;19.90;99.90;;;;;;5058626;28;20205;-82
2021/08/22 00:14:52;;;;;;;1.10;0.90;;;20.00;99.90;;;;;;5060724;28;20212;-82
2021/08/22 00:17:18;;;;;;;0.73;0.60;;;20.00;99.90;;;;;;5071790;28;20192;-82
2021/08/22 00:19:44;;;;;;;1.17;1.07;;;19.90;99.90;;;;;;5064195;28;20251;-83
2021/08/22 00:22:10;;;;;;;1.20;0.60;;;20.00;99.90;;;;;;5055671;28;20185;-82
2021/08/22 00:24:36;;;;;;;0.43;0.43;;;20.10;99.90;;;;;;5057776;28;20243;-82
2021/08/22 00:27:01;;;;;;;1.33;0.57;;;20.10;99.90;;;;;;5065270;28;20205;-82
2021/08/22 00:29:27;;;;;;;1.17;0.63;;;20.20;99.90;;;;;;5072517;28;20177;-82
2021/08/22 00:31:52;;;;;;;1.07;0.50;;;20.20;99.90;;;;;;5063196;28;20178;-82
2021/08/22 00:34:18;;;;;;;0.87;0.60;;;20.30;99.90;;;;;;5059100;28;20181;-82
2021/08/22 00:36:43;;;;;;;1.03;0.73;;;20.30;99.90;;;;;;5063033;28;20642;-82
2021/08/22 00:39:09;;;;;;;0.50;0.50;;;20.40;99.90;;;;;;5059003;28;20780;-82
2021/08/22 00:41:35;;;;;;;0.57;0.57;;;20.30;99.90;;;;;;5068426;28;20583;-83
2021/08/22 00:44:00;;;;;;;2.40;0.60;;;20.40;99.90;;;;;;5072729;28;20556;-82
2021/08/22 00:46:26;;;;;;;0.63;0.63;;;20.40;99.90;;;;;;5073822;28;20232;-82
2021/08/22 00:48:52;;;;;;;0.67;0.67;;;20.50;99.90;;;;;;5069916;28;20178;-82
2021/08/22 00:51:18;;;;;;;1.03;0.77;;;20.50;99.90;;;;;;5061056;28;20209;-81
2021/08/22 00:53:47;;;;;;;0.50;0.50;;;20.30;99.90;;;;;;5070619;28;20254;-82
2021/08/22 00:56:14;;;;;;;0.63;0.63;;;20.10;99.90;;;;;;5066420;28;20223;-82
2021/08/22 00:58:39;;;;;;;1.50;0.80;;;19.90;99.90;;;;;;5068063;28;20174;-82
2021/08/22 01:01:12;;;;;;;0.50;0.50;;;19.70;99.90;;;;;;5073588;28;20208;-82
2021/08/22 01:03:45;;;;;;;2.27;1.07;;;19.50;99.90;;;;;;5074349;28;20177;-84
2021/08/22 01:06:35;;;;;;;1.03;0.50;;;19.30;99.90;;;;;;5096176;28;20204;-82
2021/08/22 01:09:11;;;;;;;2.33;0.70;;;19.20;99.90;;;;;;5065969;28;20559;-82
2021/08/22 01:11:39;;;;;;;0.80;0.53;;;19.30;99.90;;;;;;5074190;28;20653;-82
2021/08/22 01:14:11;;;;;;;0.70;0.70;;;19.30;99.90;;;;;;5070983;28;20177;-82
2021/08/22 01:16:45;;;;;;;0.50;0.50;;;19.40;99.90;;;;;;5066112;28;20226;-82
2021/08/22 01:19:20;;;;;;;1.20;0.80;;;19.30;99.90;;;;;;5069289;28;20189;-82
2021/08/22 01:21:47;;;;;;;0.73;0.73;;;19.30;99.90;;;;;;5070728;28;20341;-82
2021/08/22 01:24:13;;;;;;;2.13;0.90;;;19.40;99.90;;;;;;5071347;28;20216;-80
2021/08/22 01:26:40;;;;;;;0.30;0.30;;;19.60;99.90;;;;;;5072860;28;20284;-81
2021/08/22 01:29:07;;;;;;;0.87;0.87;;;19.80;99.90;;;;;;5058475;28;20184;-82
2021/08/22 01:31:43;;;;;;;1.07;1.07;;;20.00;99.90;;;;;;5062672;28;20198;-82
2021/08/22 01:34:09;;;;;;;0.50;0.50;;;20.00;99.90;;;;;;5066185;28;20180;-82
2021/08/22 01:36:35;;;;;;;1.07;0.50;;;20.00;99.90;;;;;;5072567;28;20184;-82
2021/08/22 01:39:02;;;;;;;0.60;0.60;;;20.10;99.90;;;;;;5062332;28;20680;-82
2021/08/22 01:41:28;;;;;;;2.60;0.87;;;20.20;99.90;;;;;;5072627;28;20570;-81
2021/08/22 01:43:54;;;;;;;0.83;0.77;;;20.30;99.90;;;;;;5073451;28;20197;-82
2021/08/22 01:46:28;;;;;;;0.80;0.80;;;20.30;99.90;;;;;;5065250;28;20258;-82
2021/08/22 01:48:55;;;;;;;1.27;0.80;;;20.30;99.90;;;;;;5070931;28;20180;-82
2021/08/22 01:51:21;;;;;;;1.00;0.80;;;20.30;99.90;;;;;;5072196;28;20574;-82
2021/08/22 01:53:47;;;;;;;0.50;0.50;;;20.30;99.90;;;;;;5063047;28;20174;-82
2021/08/22 01:56:12;;;;;;;0.60;0.60;;;20.20;99.90;;;;;;5070268;28;20192;-82
2021/08/22 01:58:38;;;;;;;0.57;0.57;;;20.30;99.90;;;;;;5072395;28;20189;-82
2021/08/22 02:01:04;;;;;;;0.50;0.50;;;20.30;99.90;;;;;;5071734;28;20208;-83
2021/08/22 02:03:38;;;;;;;0.50;0.50;;;20.30;99.90;;;;;;5072121;28;20189;-82
2021/08/22 02:06:15;;;;;;;0.47;0.47;;;20.30;99.90;;;;;;5072538;28;20216;-82
2021/08/22 02:08:44;;;;;;;0.43;0.43;;;20.40;99.90;;;;;;5076003;28;20204;-82
2021/08/22 02:11:24;;;;;;;0.70;0.70;;;20.40;99.90;;;;;;5071308;28;20265;-82
2021/08/22 02:13:51;;;;;;;0.50;0.50;;;20.40;99.90;;;;;;5072235;28;20664;-82
2021/08/22 02:16:21;;;;;;;1.17;1.07;;;20.40;99.90;;;;;;5073480;28;20184;-82
2021/08/22 02:18:49;;;;;;;0.80;0.80;;;20.40;99.90;;;;;;5070626;28;20306;-82
2021/08/22 02:21:15;;;;;;;2.67;0.70;;;20.50;99.90;;;;;;5069147;28;20247;-82
2021/08/22 02:23:41;;;;;;;1.20;0.60;;;20.50;99.90;;;;;;5070951;28;20302;-81
2021/08/22 02:26:07;;;;;;;1.33;0.80;;;20.40;99.90;;;;;;5070890;28;20215;-82
2021/08/22 02:28:33;;;;;;;0.60;0.60;;;20.40;99.90;;;;;;5071206;28;20653;-82
2021/08/22 02:30:59;;;;;;;0.57;0.57;;;20.40;99.90;;;;;;5070604;28;20203;-82
2021/08/22 02:33:25;;;;;;;0.43;0.43;;;20.30;99.90;;;;;;5058860;28;20596;-82
2021/08/22 02:35:50;;;;;;;0.77;0.77;;;20.30;99.90;;;;;;5070047;28;20652;-82
2021/08/22 02:38:16;;;;;;;0.70;0.70;;;20.30;99.90;;;;;;5059482;28;20186;-82
2021/08/22 02:40:42;;;;;;;1.60;0.50;;;20.30;99.90;;;;;;5054436;28;20548;-82
2021/08/22 02:43:07;;;;;;;0.73;0.73;;;20.20;99.90;;;;;;5071215;28;20185;-82
2021/08/22 02:45:33;;;;;;;1.07;0.87;;;20.20;99.90;;;;;;5071810;28;20180;-82
2021/08/22 02:48:00;;;;;;;0.33;0.33;;;20.10;99.90;;;;;;5073274;28;20247;-82
2021/08/22 02:50:28;;;;;;;0.77;0.60;;;20.10;99.90;;;;;;5065221;28;20193;-82
2021/08/22 02:52:54;;;;;;;0.70;0.70;;;20.00;99.90;;;;;;5061822;28;20173;-81
2021/08/22 02:55:19;;;;;;;1.30;0.60;;;20.00;99.90;;;;;;5070051;28;20357;-82
2021/08/22 02:57:45;;;;;;;0.80;0.80;;;20.00;99.90;;;;;;5064870;28;20186;-81
2021/08/22 03:00:11;;;;;;;0.40;0.40;;;20.00;99.90;;;;;;5097331;28;20254;-82
2021/08/22 03:02:36;;;;;;;0.57;0.57;;;20.00;99.90;;;;;;5058623;28;20181;-82
2021/08/22 03:05:03;;;;;;;0.43;0.43;;;20.00;99.90;;;;;;5064209;28;20193;-82
2021/08/22 03:07:28;;;;;;;1.13;0.70;;;20.00;99.90;;;;;;5062971;28;20216;-82
2021/08/22 03:09:54;;;;;;;0.87;0.50;;;20.00;99.90;;;;;;5069615;28;20205;-82
2021/08/22 03:12:20;;;;;;;0.43;0.43;;;20.00;99.90;;;;;;5070875;28;20188;-82
2021/08/22 03:14:45;;;;;;;0.70;0.70;;;19.90;99.90;;;;;;5070810;28;20256;-81
2021/08/22 03:17:11;;;;;;;0.30;0.30;;;20.00;99.90;;;;;;5068847;28;20181;-82
2021/08/22 03:19:36;;;;;;;1.10;0.47;;;19.90;99.90;;;;;;5071738;28;20200;-82
2021/08/22 03:22:02;;;;;;;0.73;0.73;;;19.80;99.90;;;;;;5060090;28;20264;-82
2021/08/22 03:24:28;;;;;;;0.30;0.30;;;19.70;99.90;;;;;;5071534;28;20271;-82
2021/08/22 03:26:54;;;;;;;0.30;0.30;;;19.60;99.90;;;;;;5070044;28;20291;-82
2021/08/22 03:29:19;;;;;;;0.47;0.30;;;19.50;99.90;;;;;;5070804;28;20652;-82
2021/08/22 03:31:45;;;;;;;0.67;0.67;;;19.50;99.90;;;;;;5071399;28;20181;-82
2021/08/22 03:34:10;;;;;;;1.53;1.40;;;19.50;99.90;;;;;;5070390;28;20192;-82
2021/08/22 03:36:37;;;;;;;0.60;0.60;;;19.40;99.90;;;;;;5068105;28;20660;-81
2021/08/22 03:39:04;;;;;;;0.63;0.63;;;19.30;99.90;;;;;;5069932;28;20267;-82
2021/08/22 03:41:30;;;;;;;0.30;0.30;;;19.30;99.90;;;;;;5065000;28;20212;-82
2021/08/22 03:43:55;;;;;;;0.50;0.50;;;19.20;99.90;;;;;;5070919;28;20332;-82
2021/08/22 03:46:21;;;;;;;0.97;0.47;;;19.20;99.90;;;;;;5065466;28;20201;-82
2021/08/22 03:48:46;;;;;;;0.40;0.37;;;19.20;99.90;;;;;;5104355;28;20188;-81
2021/08/22 03:51:12;;;;;;;1.33;0.47;;;19.10;99.90;;;;;;5064415;28;20316;-82
2021/08/22 03:53:37;;;;;;;0.60;0.37;;;19.10;99.90;;;;;;5066157;28;20281;-83
2021/08/22 03:56:03;;;;;;;0.73;0.50;;;19.10;99.90;;;;;;5070287;28;20197;-83
2021/08/22 03:58:29;;;;;;;1.07;0.77;;;19.10;99.90;;;;;;5073186;28;20173;-83
2021/08/22 04:00:54;;;;;;;0.73;0.60;;;19.10;99.90;;;;;;5074338;28;20208;-81
2021/08/22 04:03:20;;;;;;;0.53;0.50;;;19.00;99.90;;;;;;5069410;28;20410;-82
2021/08/22 04:05:45;;;;;;;0.37;0.37;;;19.00;99.90;;;;;;5064833;28;20207;-82
2021/08/22 04:08:11;;;;;;;0.77;0.50;;;19.00;99.90;;;;;;5071610;28;20263;-82
2021/08/22 04:10:37;;;;;;;0.37;0.37;;;18.90;99.90;;;;;;5068807;28;20228;-82
2021/08/22 04:13:02;;;;;;;1.63;0.60;;;18.90;99.90;;;;;;5067931;28;20177;-82
2021/08/22 04:15:28;;;;;;;1.33;1.30;;;18.90;99.90;;;;;;5065841;28;20216;-82
2021/08/22 04:17:53;;;;;;;0.37;0.37;;;18.80;99.90;;;;;;5066171;28;20189;-82
2021/08/22 04:20:19;;;;;;;0.37;0.37;;;18.80;99.90;;;;;;5073757;28;20208;-81
2021/08/22 04:22:44;;;;;;;0.30;0.27;;;18.80;99.90;;;;;;5070879;28;20185;-82
2021/08/22 04:25:12;;;;;;;0.43;0.40;;;18.80;99.90;;;;;;5071971;28;20219;-81
2021/08/22 04:27:41;;;;;;;0.60;0.40;;;18.70;99.90;;;;;;5068674;28;20215;-82
2021/08/22 04:30:09;;;;;;;2.03;1.87;;;18.70;99.90;;;;;;5071702;28;20569;-82
2021/08/22 04:32:35;;;;;;;0.37;0.30;;;18.80;99.90;;;;;;5075147;28;20235;-82
2021/08/22 04:35:01;;;;;;;0.10;0.10;;;18.70;99.90;;;;;;5072772;28;20181;-81
2021/08/22 04:37:27;;;;;;;0.50;0.50;;;18.70;99.90;;;;;;5068892;28;20205;-82
2021/08/22 04:39:55;;;;;;;1.53;0.37;;;18.70;99.90;;;;;;5067239;28;20205;-85
2021/08/22 04:42:21;;;;;;;0.30;0.30;;;18.70;99.90;;;;;;5072800;28;20181;-85
2021/08/22 04:44:47;;;;;;;0.33;0.33;;;18.70;99.90;;;;;;5060763;28;20188;-84
2021/08/22 04:47:12;;;;;;;0.33;0.33;;;18.80;99.90;;;;;;5071509;28;20706;-86
2021/08/22 04:49:38;;;;;;;1.10;0.63;;;18.80;99.90;;;;;;5072482;28;20208;-85
2021/08/22 04:52:04;;;;;;;0.50;0.50;;;18.90;99.90;;;;;;5072371;28;20186;-85
2021/08/22 04:54:29;;;;;;;0.30;0.30;;;19.00;99.90;;;;;;5062369;28;20200;-85
2021/08/22 04:56:55;;;;;;;0.67;0.67;;;19.10;99.90;;;;;;5067900;28;20190;-85
2021/08/22 04:59:20;;;;;;;1.47;1.37;;;19.20;99.90;;;;;;5071815;28;20184;-82
2021/08/22 05:01:46;;;;;;;0.87;0.53;;;19.30;99.90;;;;;;5074159;28;20185;-81
2021/08/22 05:04:11;;;;;;;0.30;0.30;;;19.30;99.90;;;;;;5072559;28;20220;-84
2021/08/22 05:06:37;;;;;;;2.00;0.97;;;19.30;99.90;;;;;;5071502;28;20201;-82
2021/08/22 05:09:02;;;;;;;0.40;0.40;;;19.30;99.90;;;;;;5076937;28;20195;-81
2021/08/22 05:11:28;;;;;;;0.30;0.30;;;19.30;99.90;;;;;;5067805;28;20206;-81
2021/08/22 05:13:54;;;;;;;0.70;0.47;;;19.30;99.90;;;;;;5063296;28;20212;-82
2021/08/22 05:16:19;;;;;;;1.10;1.00;;;19.30;99.90;;;;;;5074270;28;20606;-82
2021/08/22 05:18:45;;;;;;;0.53;0.53;;;19.40;99.90;;;;;;5074494;28;20208;-82
2021/08/22 05:21:10;;;;;;;0.67;0.60;;;19.40;99.90;;;;;;5071327;28;20581;-81
2021/08/22 05:23:36;;;;;;;0.30;0.30;;;19.50;99.90;;;;;;5074876;28;20197;-84
2021/08/22 05:26:01;;;;;;;0.47;0.47;;;19.60;99.90;;;;;;5072097;28;20251;-84
2021/08/22 05:28:27;;;;;;;0.63;0.63;;;19.70;99.90;;;;;;5069567;28;20547;-85
2021/08/22 05:30:53;;;;;;;1.57;1.27;;;19.90;99.90;;;;;;5070246;28;20246;-81
2021/08/22 05:33:18;;;;;;;0.30;0.30;;;20.00;99.90;;;;;;5071504;28;20198;-81
2021/08/22 05:35:44;;;;;;;0.70;0.30;;;20.10;99.90;;;;;;5066114;28;20216;-82
2021/08/22 05:38:10;;;;;;;0.40;0.40;;;20.20;99.90;;;;;;5068245;28;20211;-83
2021/08/22 05:40:35;;;;;;;1.03;0.90;;;20.20;99.90;;;;;;5068395;28;20283;-83
2021/08/22 05:43:01;;;;;;;0.30;0.30;;;20.40;99.90;;;;;;5070991;28;20188;-82
2021/08/22 05:45:27;;;;;;;0.60;0.50;;;20.30;99.90;;;;;;5066435;28;20192;-82
2021/08/22 05:47:53;;;;;;;0.40;0.40;;;20.40;99.90;;;;;;5072196;28;20244;-82
2021/08/22 05:50:18;;;;;;;0.33;0.33;;;20.40;99.90;;;;;;5065696;28;20223;-83
2021/08/22 05:52:44;;;;;;;0.67;0.63;;;20.30;99.90;;;;;;5067974;28;20181;-83
2021/08/22 05:55:10;;;;;;;0.30;0.30;;;20.30;99.90;;;;;;5069592;28;20190;-83
2021/08/22 05:57:37;;;;;;;0.40;0.40;;;20.40;99.90;;;;;;5062092;28;20288;-82
2021/08/22 06:00:07;;;;;;;0.57;0.50;;;20.40;99.90;;;;;;5070816;28;20211;-83
2021/08/22 06:02:32;;;;;;;1.23;0.60;;;20.50;99.90;;;;;;5062399;28;20202;-83
2021/08/22 06:04:58;;;;;;;0.47;0.47;;;20.40;99.90;;;;;;5067889;28;20196;-83
2021/08/22 06:07:24;;;;;;;0.17;0.17;;;20.50;99.90;;;;;;5067719;28;20291;-82
2021/08/22 06:09:51;;;;;;;0.40;0.40;;;20.70;99.90;;;;;;5066116;28;20209;-82
2021/08/22 06:12:18;;;;;;;0.30;0.30;;;20.70;99.90;;;;;;5067169;28;20177;-83
2021/08/22 06:14:44;;;;;;;0.13;0.13;;;20.70;99.90;;;;;;5092466;28;20306;-82
2021/08/22 06:17:09;;;;;;;1.03;0.57;;;20.80;99.90;;;;;;5067553;28;20217;-82
2021/08/22 06:19:35;;;;;;;0.40;0.40;;;20.70;99.90;;;;;;5069912;28;20220;-83
2021/08/22 06:22:01;;;;;;;0.20;0.20;;;20.80;99.90;;;;;;5071052;28;20241;-82
2021/08/22 06:24:27;;;;;;;0.50;0.50;;;21.00;99.90;;;;;;5065624;28;20561;-83
2021/08/22 06:26:52;;;;;;;0.40;0.40;;;21.10;99.90;;;;;;5065840;28;20196;-83
2021/08/22 06:29:18;;;;;;;0.53;0.53;;;21.30;99.90;;;;;;5066536;28;20185;-82
2021/08/22 06:31:43;;;;;;;0.80;0.80;;;21.40;99.90;;;;;;5068305;28;20193;-83
2021/08/22 06:34:10;;;;;;;0.43;0.43;;;21.40;99.90;;;;;;5069451;28;20185;-83
2021/08/22 06:36:39;;;;;;;0.97;0.80;;;21.30;99.90;;;;;;5069578;28;20185;-83
2021/08/22 06:39:06;;;;;;;0.87;0.87;;;21.30;99.90;;;;;;5069103;28;20575;-83
2021/08/22 06:41:33;;;;;;;0.43;0.43;;;21.40;99.90;;;;;;5068800;28;20295;-83
2021/08/22 06:43:59;;;;;;;0.57;0.57;;;21.30;99.90;;;;;;5067806;28;20699;-83
2021/08/22 06:46:25;;;;;;;0.33;0.33;;;21.30;99.90;;;;;;5063026;28;20209;-85
2021/08/22 06:48:50;;;;;;;0.50;0.50;;;21.40;99.90;;;;;;5067394;28;20554;-87
2021/08/22 06:51:16;;;;;;;1.50;0.90;;;21.50;99.90;;;;;;5061979;28;20193;-87
2021/08/22 06:53:42;;;;;;;1.23;0.80;;;21.60;99.90;;;;;;5067788;28;20745;-82
2021/08/22 06:56:07;;;;;;;8.63;0.60;;;21.60;99.90;;;;;;5071739;28;20184;-82
2021/08/22 06:58:33;;;;;;;0.80;0.70;;;21.70;99.90;;;;;;5072245;28;20675;-82
2021/08/22 07:00:58;;;;;;;1.43;0.73;;;21.60;99.90;;;;;;5071200;28;20197;-81
2021/08/22 07:03:24;;;;;;;1.53;0.60;;;21.60;99.90;;;;;;5070860;28;20295;-82
2021/08/22 07:05:50;;;;;;;1.27;0.70;;;21.70;99.90;;;;;;5071231;28;20227;-83
2021/08/22 07:08:15;;;;;;;1.20;0.87;;;21.70;99.90;;;;;;5071812;28;20205;-82
2021/08/22 07:10:41;;;;;;;0.90;0.87;;;21.80;99.90;;;;;;5070870;28;20200;-82
2021/08/22 07:13:07;;;;;;;1.30;0.70;;;22.00;99.90;;;;;;5072100;28;20177;-81
2021/08/22 07:15:33;;;;;;;1.90;1.00;;;22.00;99.90;;;;;;5071050;28;20177;-82
2021/08/22 07:17:59;;;;;;;0.87;0.47;;;22.00;99.90;;;;;;5070650;28;20184;-82
2021/08/22 07:20:25;;;;;;;0.50;0.50;;;22.20;99.90;;;;;;5070749;28;20220;-82
2021/08/22 07:22:50;;;;;;;0.57;0.57;;;22.30;99.90;;;;;;5066715;28;20182;-85
2021/08/22 07:25:16;;;;;;;0.83;0.50;;;22.50;99.90;;;;;;5055343;28;20205;-83
2021/08/22 07:27:42;;;;;;;1.10;0.60;;;22.50;99.90;;;;;;5066392;28;20197;-83
2021/08/22 07:30:08;;;;;;;0.50;0.50;;;22.60;99.90;;;;;;5058061;28;20291;-82
2021/08/22 07:32:33;;;;;;;0.70;0.70;;;22.70;99.90;;;;;;5060205;28;20203;-83
2021/08/22 07:34:59;;;;;;;0.50;0.50;;;22.60;99.90;;;;;;5063723;28;20185;-83
2021/08/22 07:37:24;;;;;;;2.20;0.60;;;22.60;99.90;;;;;;5062860;28;20193;-85
2021/08/22 07:39:50;;;;;;;1.70;0.60;;;22.40;99.90;;;;;;5065307;28;20200;-86
2021/08/22 07:42:15;;;;;;;0.77;0.30;;;22.30;99.90;;;;;;5066185;28;20185;-86
2021/08/22 07:44:42;;;;;;;0.50;0.50;;;22.20;99.90;;;;;;5059106;28;20260;-84
2021/08/22 07:47:08;;;;;;;0.57;0.27;;;22.10;99.90;;;;;;5066117;28;20207;-86
2021/08/22 07:49:33;;;;;;;1.07;0.50;;;22.10;99.90;;;;;;5086701;28;20181;-83
2021/08/22 07:51:59;;;;;;;1.13;0.50;;;22.00;99.90;;;;;;5063215;28;20790;-85
2021/08/22 07:54:24;;;;;;;0.70;0.70;;;22.00;99.90;;;;;;5064677;28;20181;-85
2021/08/22 07:56:50;;;;;;;0.43;0.43;;;22.00;99.90;;;;;;5063430;28;20264;-85
2021/08/22 07:59:16;;;;;;;0.47;0.43;;;22.10;99.90;;;;;;5073802;28;20732;-85
2021/08/22 08:01:42;;;;;;;0.50;0.50;;;22.20;99.90;;;;;;5064278;28;20267;-85
2021/08/22 08:04:07;;;;;;;0.80;0.67;;;22.20;99.90;;;;;;5068290;28;20271;-84
2021/08/22 08:06:33;;;;;;;1.30;0.73;;;22.40;99.90;;;;;;5063587;28;20805;-86
2021/08/22 08:08:59;;;;;;;1.60;0.40;;;22.20;99.90;;;;;;5065017;28;20184;-86
2021/08/22 08:11:25;;;;;;;0.40;0.40;;;22.40;99.90;;;;;;5065266;28;20194;-86
2021/08/22 08:13:51;;;;;;;0.77;0.70;;;22.50;99.90;;;;;;5066963;28;20268;-85
2021/08/22 08:16:16;;;;;;;0.87;0.87;;;22.50;99.90;;;;;;5062482;28;20177;-85
2021/08/22 08:18:42;;;;;;;0.57;0.57;;;22.50;99.90;;;;;;5071409;28;20172;-84
2021/08/22 08:21:07;;;;;;;1.23;1.00;;;22.50;99.90;;;;;;5067999;28;20684;-85
2021/08/22 08:23:33;;;;;;;0.50;0.40;;;22.60;99.90;;;;;;5059361;28;20192;-85
2021/08/22 08:25:58;;;;;;;0.60;0.57;;;22.60;99.90;;;;;;5062405;28;20278;-86
2021/08/22 08:28:24;;;;;;;0.40;0.40;;;22.60;99.90;;;;;;5061406;28;20231;-85
2021/08/22 08:30:50;;;;;;;0.30;0.30;;;22.60;99.90;;;;;;5063698;28;20200;-85
2021/08/22 08:33:16;;;;;;;0.30;0.30;;;22.60;99.90;;;;;;5052525;28;20273;-86
2021/08/22 08:35:41;;;;;;;0.30;0.30;;;22.70;99.90;;;;;;5045662;28;20184;-86
2021/08/22 08:38:07;;;;;;;0.70;0.70;;;22.80;99.90;;;;;;5057964;28;20211;-86
2021/08/22 08:40:34;;;;;;;0.43;0.43;;;22.80;99.90;;;;;;5063066;28;20672;-83
2021/08/22 08:43:10;;;;;;;0.93;0.93;;;22.90;99.90;;;;;;5062222;28;20185;-83
2021/08/22 08:46:02;;;;;;;1.17;1.07;;;22.80;99.90;;;;;;5064948;28;20188;-89
2021/08/22 08:48:56;;;;;;;0.43;0.43;;;22.60;99.90;;;;;;5069892;28;20223;-85
2021/08/22 08:51:30;;;;;;;0.73;0.57;;;22.70;99.90;;;;;;5068396;28;20259;-85
2021/08/22 08:54:12;;;;;;;1.33;0.80;;;22.50;99.90;;;;;;5062533;28;20185;-85
2021/08/22 08:56:40;;;;;;;0.83;0.60;;;22.60;99.90;;;;;;5067563;28;20188;-86
2021/08/22 08:59:05;;;;;;;0.40;0.40;;;22.60;99.90;;;;;;5066307;28;20194;-85
2021/08/22 09:01:31;;;;;;;0.53;0.47;;;22.60;99.90;;;;;;5067057;28;20209;-86
2021/08/22 09:04:21;;;;;;;0.50;0.50;;;22.60;99.90;;;;;;5065397;28;20180;-82
2021/08/22 09:07:12;;;;;;;1.30;0.40;;;22.50;99.90;;;;;;5057206;28;20213;-83
2021/08/22 09:10:16;;;;;;;3.30;0.70;;;22.50;99.90;;;;;;5065509;28;20667;-83
2021/08/22 09:13:04;;;;;;;1.10;1.00;;;22.60;99.90;;;;;;5070287;28;20185;-82
2021/08/22 09:16:00;;;;;;;1.13;0.70;;;22.70;99.90;;;;;;5067949;28;20679;-82
2021/08/22 09:19:03;;;;;;;8.60;0.60;;;22.80;99.90;;;;;;5056258;28;20185;-83
2021/08/22 09:21:53;;;;;;;0.40;0.40;;;22.80;99.90;;;;;;5064850;28;20209;-83
2021/08/22 09:24:21;;;;;;;0.57;0.57;;;23.00;99.90;;;;;;5071614;28;20614;-82
2021/08/22 09:27:12;;;;;;;1.70;0.87;;;23.20;99.90;;;;;;5078403;28;20278;-83
2021/08/22 09:30:11;;;;;;;0.50;0.47;;;23.30;99.90;;;;;;5061554;28;20204;-83
2021/08/22 09:33:02;;;;;;;0.50;0.40;;;23.30;99.90;;;;;;5070558;28;20177;-83
2021/08/22 09:36:05;;;;;;;0.30;0.30;;;23.30;99.90;;;;;;5068671;28;20203;-83
2021/08/22 09:38:52;;;;;;;0.67;0.67;;;23.30;99.90;;;;;;5071035;28;20249;-83
2021/08/22 09:41:37;;;;;;;0.33;0.33;;;23.30;99.90;;;;;;5070883;28;20636;-81
2021/08/22 09:44:21;;;;;;;1.60;0.53;;;23.50;99.90;;;;;;5071016;28;20203;-82
2021/08/22 09:47:05;;;;;;;1.30;0.80;;;23.50;99.90;;;;;;5068105;28;20209;-83
2021/08/22 09:50:09;;;;;;;0.50;0.50;;;23.50;99.90;;;;;;5071556;28;20199;-83
2021/08/22 09:53:12;;;;;;;0.43;0.43;;;23.60;99.90;;;;;;5060533;28;20181;-82
2021/08/22 09:56:05;;;;;;;0.50;0.50;;;23.80;99.90;;;;;;5065258;28;20177;-83
2021/08/22 09:58:50;;;;;;;0.50;0.50;;;24.30;99.90;;;;;;5067323;28;20192;-83
2021/08/22 10:01:37;;;;;;;0.40;0.40;;;24.50;99.90;;;;;;5064047;28;20194;-82
2021/08/22 10:04:14;;;;;;;1.07;0.50;;;24.80;99.90;;;;;;5064530;28;20169;-83
2021/08/22 10:07:01;;;;;;;0.57;0.57;;;24.80;99.90;;;;;;5063824;28;20290;-81
2021/08/22 10:09:41;;;;;;;0.90;0.90;;;24.90;99.90;;;;;;5087805;28;20184;-82
2021/08/22 10:12:07;;;;;;;1.07;1.00;;;24.90;99.90;;;;;;5065687;28;20668;-83
2021/08/22 10:14:36;;;;;;;0.30;0.30;;;25.30;99.90;;;;;;5067894;28;20201;-83
2021/08/22 10:17:02;;;;;;;0.73;0.73;;;25.40;99.90;;;;;;5063875;28;20193;-83
2021/08/22 10:19:29;;;;;;;0.67;0.53;;;25.40;99.90;;;;;;5070574;28;20183;-82
2021/08/22 10:22:11;;;;;;;1.00;0.60;;;25.70;99.90;;;;;;5058774;28;20240;-82
2021/08/22 10:24:37;;;;;;;0.57;0.40;;;25.80;99.90;;;;;;5069028;28;20283;-83
2021/08/22 10:27:09;;;;;;;0.63;0.63;;;26.10;99.90;;;;;;5070498;28;20296;-83
2021/08/22 10:29:59;;;;;;;0.60;0.57;;;26.20;99.90;;;;;;5057985;28;20185;-83
2021/08/22 10:32:25;;;;;;;0.83;0.83;;;26.50;99.90;;;;;;5057616;28;20189;-83
2021/08/22 10:35:18;;;;;;;1.17;1.00;;;26.80;99.90;;;;;;5063292;28;20185;-84
2021/08/22 10:37:46;;;;;;;0.43;0.43;;;26.60;99.90;;;;;;5080897;28;20263;-83
2021/08/22 10:40:21;;;;;;;0.70;0.70;;;26.30;99.90;;;;;;5060823;28;20200;-83
2021/08/22 10:42:47;;;;;;;1.07;0.63;;;26.00;99.90;;;;;;5061236;28;20208;-83
2021/08/22 10:45:48;;;;;;;0.97;0.73;;;25.90;99.90;;;;;;5068871;28;20189;-82
2021/08/22 10:48:22;;;;;;;0.53;0.50;;;26.20;99.90;;;;;;5055347;28;20584;-83
2021/08/22 10:51:00;;;;;;;0.60;0.60;;;26.30;99.90;;;;;;5065747;28;20211;-82
2021/08/22 10:53:27;;;;;;;0.93;0.67;;;26.10;99.90;;;;;;5066991;28;20252;-83
2021/08/22 10:55:53;;;;;;;0.80;0.80;;;26.20;99.90;;;;;;5067375;28;20181;-83
2021/08/22 10:58:18;;;;;;;0.60;0.60;;;26.00;99.90;;;;;;5065295;28;20693;-82
2021/08/22 11:00:44;;;;;;;0.37;0.37;;;25.80;99.90;;;;;;5066609;28;20283;-83
2021/08/22 11:03:16;;;;;;;0.63;0.63;;;25.50;99.90;;;;;;5065389;28;20193;-82
2021/08/22 11:05:42;;;;;;;0.80;0.80;;;25.20;99.90;;;;;;5063740;28;20210;-83
2021/08/22 11:08:23;;;;;;;1.23;1.07;;;24.90;99.90;;;;;;5094813;27;20217;-83
2021/08/22 11:11:07;;;;;;;0.50;0.50;;;25.00;99.90;;;;;;5066739;28;20196;-83
2021/08/22 11:13:41;;;;;;;0.87;0.87;;;25.30;99.90;;;;;;5066775;28;20553;-83
2021/08/22 11:16:09;;;;;;;4.23;1.03;;;25.20;99.90;;;;;;5066712;28;20270;-83
2021/08/22 11:18:36;;;;;;;0.40;0.40;;;25.20;99.90;;;;;;5067335;28;20185;-82
2021/08/22 11:21:02;;;;;;;0.43;0.40;;;25.00;99.90;;;;;;5066677;28;20227;-83
2021/08/22 11:23:29;;;;;;;0.50;0.50;;;24.70;99.90;;;;;;5065630;28;20565;-83
2021/08/22 11:26:06;;;;;;;0.37;0.37;;;24.40;99.90;;;;;;5068118;28;20199;-81
2021/08/22 11:28:32;;;;;;;0.63;0.63;;;23.90;99.90;;;;;;5065759;28;20270;-83
2021/08/22 11:30:58;;;;;;;0.83;0.57;;;23.80;99.90;;;;;;5078127;28;20279;-83
2021/08/22 11:33:27;;;;;;;0.40;0.40;;;23.70;99.90;;;;;;5065219;28;20656;-83
2021/08/22 11:35:53;;;;;;;0.90;0.77;;;23.70;99.90;;;;;;5064278;28;20188;-82
2021/08/22 11:38:19;;;;;;;0.50;0.50;;;23.90;99.90;;;;;;5069525;28;20554;-83
2021/08/22 11:40:45;;;;;;;0.70;0.70;;;23.70;99.90;;;;;;5064029;28;20215;-82
2021/08/22 11:43:13;;;;;;;0.20;0.20;;;23.70;99.90;;;;;;5093711;28;20255;-81
2021/08/22 11:45:42;;;;;;;0.40;0.40;;;23.70;99.90;;;;;;5065375;28;20264;-83
2021/08/22 11:48:17;;;;;;;1.07;0.87;;;23.70;99.90;;;;;;5062035;28;20708;-85
2021/08/22 11:50:43;;;;;;;0.80;0.80;;;23.70;99.90;;;;;;5072911;28;20204;-83
2021/08/22 11:53:10;;;;;;;0.77;0.57;;;23.80;99.90;;;;;;5066285;28;20187;-82
2021/08/22 11:55:38;;;;;;;1.63;0.93;;;23.80;99.90;;;;;;5077952;28;20181;-83
2021/08/22 11:58:19;;;;;;;0.30;0.30;;;23.90;99.90;;;;;;5065615;28;20559;-83
2021/08/22 12:00:56;;;;;;;0.53;0.50;;;24.00;99.90;;;;;;5060636;28;20205;-83
2021/08/22 12:03:24;;;;;;;0.60;0.60;;;24.10;99.90;;;;;;5068297;28;20237;-83
2021/08/22 12:05:59;;;;;;;1.10;0.50;;;24.20;99.90;;;;;;5061628;28;20181;-83
2021/08/22 12:08:25;;;;;;;0.53;0.43;;;24.40;99.90;;;;;;5061992;28;20299;-83
2021/08/22 12:11:08;;;;;;;0.77;0.50;;;24.60;99.90;;;;;;5069573;28;20193;-83
2021/08/22 12:13:34;;;;;;;1.70;0.60;;;24.60;99.90;;;;;;5061432;28;20185;-82
2021/08/22 12:16:00;;;;;;;2.37;0.83;;;24.40;99.90;;;;;;5067917;28;20574;-82
2021/08/22 12:18:35;;;;;;;0.43;0.43;;;24.70;99.90;;;;;;5065053;28;20184;-84
2021/08/22 12:21:04;;;;;;;1.50;0.80;;;24.90;99.90;;;;;;5066065;28;20204;-83
2021/08/22 12:23:32;;;;;;;0.50;0.50;;;24.90;99.90;;;;;;5072554;28;20263;-82
2021/08/22 12:26:27;;;;;;;0.83;0.80;;;25.00;99.90;;;;;;5061052;28;20736;-83
2021/08/22 12:28:57;;;;;;;0.50;0.50;;;24.90;99.90;;;;;;5067156;28;20326;-84
2021/08/22 12:31:32;;;;;;;0.20;0.20;;;25.10;99.90;;;;;;5071311;28;20223;-83
2021/08/22 12:34:01;;;;;;;0.60;0.60;;;25.10;99.90;;;;;;5066649;28;20193;-84
2021/08/22 12:36:46;;;;;;;1.00;0.53;;;25.10;99.90;;;;;;5063624;28;20184;-83
2021/08/22 12:39:15;;;;;;;0.40;0.40;;;25.40;99.90;;;;;;5069009;28;20192;-83
2021/08/22 12:41:51;;;;;;;0.70;0.70;;;25.60;99.90;;;;;;5065494;28;20205;-82
2021/08/22 12:44:18;;;;;;;0.53;0.53;;;25.70;99.90;;;;;;5071578;28;20672;-82
2021/08/22 12:47:06;;;;;;;0.40;0.40;;;25.80;99.90;;;;;;5071688;28;20201;-83
2021/08/22 12:49:34;;;;;;;0.50;0.50;;;26.00;99.90;;;;;;5072249;28;20775;-83
2021/08/22 12:52:06;;;;;;;0.50;0.50;;;26.00;99.90;;;;;;5070565;28;20189;-84
2021/08/22 12:54:32;;;;;;;0.50;0.50;;;26.30;99.90;;;;;;5083529;28;20265;-84
2021/08/22 12:56:58;;;;;;;0.50;0.50;;;26.40;99.90;;;;;;5071231;28;20661;-83
2021/08/22 12:59:24;;;;;;;0.40;0.40;;;26.20;99.90;;;;;;5071139;28;20224;-84